Terminal Aerodrome Forecast
Issued by NWS Paducah, KY

Home | Current Version | Previous Version | Text Only | Print | Product List | Glossary On
Versions: 1 2 3 4 5 6 7 8 9 10 11 12 13 14 15 16 17 18 19
000
FTUS43 KPAH 261139
TAFEVV
TAF
KEVV 261139Z 2612/2712 VRB02KT 4SM HZ BKN025 OVC200
      TEMPO 2612/2613 2SM BR
     FM261600 VRB04KT 6SM HZ SCT035 BKN150
     FM270000 00000KT 6SM HZ SCT080 SCT250=

USA.gov is the U.S. government's official web portal to all federal, state and local government web resources and services.